Relatórios de METAR próximas

 

LPPR - Porto, Portugal, PT
Distance from station: N 52km
Actualizado: 08/05/2021 11:30
Few Clouds
Few Clouds
 Vento de S
Vento: S 13 km/h
Temperatura: 18°C
Ponto de Orvalho: 12°C
Humidade: 68%
Barómetro: 1014 hPa
Nuvens: Few Clouds
Visibilidade: 10 km
Cloud details: Few Clouds 671 m
2021/05/08 10:30 LPPR 081030Z 18007KT 160V220 9999 FEW022 18/12 Q1014